createdAt,value
2018-09-13T00:00:43.207Z,2.67
2018-09-13T00:03:12.579Z,2.07
2018-09-13T00:05:41.958Z,10.13
2018-09-13T00:08:11.348Z,10.87
2018-09-13T00:10:40.687Z,10.50
2018-09-13T00:13:10.028Z,5.80
2018-09-13T00:15:39.426Z,4.03
2018-09-13T00:18:08.758Z,4.40
2018-09-13T00:20:38.090Z,4.23
2018-09-13T00:23:08.382Z,6.33
2018-09-13T00:25:37.728Z,6.40
2018-09-13T00:28:07.173Z,8.63
2018-09-13T00:30:36.517Z,4.37
2018-09-13T00:33:05.857Z,4.93
2018-09-13T00:35:35.118Z,3.63
2018-09-13T00:38:04.416Z,6.60
2018-09-13T00:40:33.681Z,2.80
2018-09-13T00:43:02.971Z,7.90
2018-09-13T00:45:32.308Z,6.83
2018-09-13T00:48:02.013Z,7.03
2018-09-13T00:50:31.510Z,5.40
2018-09-13T00:53:00.819Z,3.27
2018-09-13T00:55:30.153Z,4.60
2018-09-13T00:57:59.466Z,3.50
2018-09-13T01:00:28.759Z,4.30
2018-09-13T01:02:58.049Z,2.20
2018-09-13T01:05:27.354Z,4.40
2018-09-13T01:07:57.242Z,2.70
2018-09-13T01:10:26.634Z,4.13
2018-09-13T01:12:55.990Z,2.23
2018-09-13T01:15:25.387Z,2.13
2018-09-13T01:17:54.773Z,5.33
2018-09-13T01:20:24.224Z,2.60
2018-09-13T01:22:53.586Z,2.30
2018-09-13T01:25:22.995Z,5.13
2018-09-13T01:27:52.401Z,7.83
2018-09-13T01:30:22.625Z,3.17
2018-09-13T01:32:52.102Z,2.60
2018-09-13T01:35:21.483Z,4.77
2018-09-13T01:37:50.988Z,6.93
2018-09-13T01:40:20.427Z,3.50
2018-09-13T01:42:49.789Z,7.10
2018-09-13T01:45:19.293Z,2.23
2018-09-13T01:47:48.973Z,3.10
2018-09-13T01:50:18.554Z,3.40
2018-09-13T01:52:48.264Z,10.83
2018-09-13T01:55:17.779Z,7.80
2018-09-13T01:57:47.280Z,7.10
2018-09-13T02:00:16.706Z,5.20
2018-09-13T02:02:46.194Z,16.30
2018-09-13T02:05:15.573Z,5.03
2018-09-13T02:07:45.213Z,4.20
2018-09-13T02:10:14.679Z,6.07
2018-09-13T02:12:44.149Z,5.60
2018-09-13T02:15:14.066Z,3.33
2018-09-13T02:17:43.624Z,6.30
2018-09-13T02:20:13.011Z,11.03
2018-09-13T02:22:42.837Z,3.20
2018-09-13T02:25:12.360Z,3.47
2018-09-13T02:27:41.802Z,8.43
2018-09-13T02:30:11.239Z,5.70
2018-09-13T02:32:40.804Z,4.20
2018-09-13T02:35:10.595Z,4.07
2018-09-13T02:37:40.478Z,4.07
2018-09-13T02:40:10.015Z,11.27
2018-09-13T02:42:39.335Z,3.53
2018-09-13T02:45:08.818Z,5.23
2018-09-13T02:47:38.271Z,3.17
2018-09-13T02:50:07.730Z,6.37
2018-09-13T02:52:37.251Z,4.63
2018-09-13T02:55:06.810Z,3.63
2018-09-13T02:57:36.116Z,4.47
2018-09-13T03:00:06.767Z,16.40
2018-09-13T03:02:36.065Z,6.37
2018-09-13T03:05:05.377Z,4.83
2018-09-13T03:07:34.736Z,4.37
2018-09-13T03:10:04.068Z,4.00
2018-09-13T03:12:33.367Z,6.37
2018-09-13T03:15:02.730Z,4.30
2018-09-13T03:17:32.044Z,6.83
2018-09-13T03:20:01.411Z,7.23
2018-09-13T03:22:31.125Z,3.20
2018-09-13T03:25:00.420Z,8.00
2018-09-13T03:27:29.748Z,5.23
2018-09-13T03:29:59.140Z,3.63
2018-09-13T03:32:28.486Z,5.37
2018-09-13T03:34:57.905Z,8.33
2018-09-13T03:37:27.249Z,6.83
2018-09-13T03:39:56.648Z,5.47
2018-09-13T03:42:25.948Z,4.63
2018-09-13T03:44:56.375Z,11.00
2018-09-13T03:47:25.675Z,11.47
2018-09-13T03:49:55.033Z,4.37
2018-09-13T03:52:24.494Z,6.80
2018-09-13T03:54:53.923Z,3.27
2018-09-13T03:57:23.217Z,5.77
2018-09-13T03:59:52.556Z,7.60
2018-09-13T04:02:21.853Z,6.33
2018-09-13T04:04:51.207Z,5.90
2018-09-13T04:07:20.809Z,5.17
2018-09-13T04:09:50.104Z,7.03
2018-09-13T04:12:19.504Z,8.93
2018-09-13T04:14:48.863Z,11.23
2018-09-13T04:17:18.266Z,4.00
2018-09-13T04:19:48.016Z,6.33
2018-09-13T04:22:18.154Z,4.43
2018-09-13T04:24:47.508Z,4.57
2018-09-13T04:27:16.878Z,4.43
2018-09-13T04:29:46.686Z,4.87
2018-09-13T04:32:16.021Z,8.87
2018-09-13T04:34:45.808Z,4.30
2018-09-13T04:37:15.165Z,5.90
2018-09-13T04:39:44.566Z,6.90
2018-09-13T04:42:13.963Z,9.33
2018-09-13T04:44:43.280Z,5.13
2018-09-13T04:47:12.630Z,6.00
2018-09-13T04:49:41.899Z,5.80
2018-09-13T04:52:11.352Z,7.50
2018-09-13T04:54:40.682Z,10.53
2018-09-13T04:57:10.170Z,6.63
2018-09-13T04:59:39.490Z,6.83
2018-09-13T05:02:08.848Z,4.33
2018-09-13T05:04:38.144Z,6.40
2018-09-13T05:07:07.616Z,8.00
2018-09-13T05:09:37.029Z,8.10
2018-09-13T05:12:06.366Z,11.50
2018-09-13T05:14:36.471Z,4.63
2018-09-13T05:17:05.803Z,4.37
2018-09-13T05:19:35.104Z,5.63
2018-09-13T05:22:04.521Z,8.67
2018-09-13T05:24:33.888Z,6.43
2018-09-13T05:27:03.258Z,7.23
2018-09-13T05:29:32.696Z,6.43
2018-09-13T05:32:02.094Z,6.07
2018-09-13T05:34:31.461Z,13.90
2018-09-13T05:37:01.361Z,6.67
2018-09-13T05:39:30.804Z,8.03
2018-09-13T05:42:00.168Z,13.17
2018-09-13T05:44:29.770Z,7.97
2018-09-13T05:46:59.121Z,7.90
2018-09-13T05:49:28.504Z,7.20
2018-09-13T05:51:58.135Z,12.90
2018-09-13T05:54:27.938Z,7.80
2018-09-13T05:56:57.342Z,21.10
2018-09-13T05:59:26.890Z,24.10
2018-09-13T06:01:56.237Z,9.33
2018-09-13T06:04:25.736Z,13.87
2018-09-13T06:06:55.095Z,12.13
2018-09-13T06:09:24.408Z,20.37
2018-09-13T06:11:53.714Z,15.40
2018-09-13T06:14:23.078Z,15.00
2018-09-13T06:16:52.347Z,14.73
2018-09-13T06:19:21.637Z,22.27
2018-09-13T06:21:51.281Z,9.17
2018-09-13T06:24:20.587Z,14.10
2018-09-13T06:26:49.996Z,14.43
2018-09-13T06:29:19.348Z,16.47
2018-09-13T06:31:48.702Z,14.43
2018-09-13T06:34:18.006Z,19.63
2018-09-13T06:36:47.424Z,20.53
2018-09-13T06:39:16.816Z,33.40
2018-09-13T06:41:46.175Z,25.57
2018-09-13T06:44:15.616Z,17.63
2018-09-13T06:46:45.011Z,10.77
2018-09-13T06:49:14.309Z,19.00
2018-09-13T06:51:43.781Z,19.93
2018-09-13T06:54:13.132Z,20.77
2018-09-13T06:56:42.496Z,21.07
2018-09-13T06:59:12.025Z,32.67
2018-09-13T07:01:41.353Z,26.47
2018-09-13T07:04:10.650Z,19.60
2018-09-13T07:06:40.495Z,16.70
2018-09-13T07:09:13.034Z,30.33
2018-09-13T07:11:42.955Z,20.40
2018-09-13T07:14:12.353Z,24.17
2018-09-13T07:16:41.657Z,19.03
2018-09-13T07:19:11.135Z,39.83
2018-09-13T07:21:40.465Z,26.27
2018-09-13T07:24:09.871Z,13.77
2018-09-13T07:26:39.615Z,19.57
2018-09-13T07:29:09.024Z,12.97
2018-09-13T07:31:38.488Z,18.40
2018-09-13T07:34:08.227Z,27.00
2018-09-13T07:36:37.617Z,14.40
2018-09-13T07:39:11.742Z,18.33
2018-09-13T07:41:41.148Z,13.23
2018-09-13T07:44:10.476Z,20.00
2018-09-13T07:46:40.155Z,20.00
2018-09-13T07:49:09.714Z,14.00
2018-09-13T07:51:39.072Z,22.10
2018-09-13T07:54:08.457Z,20.17
2018-09-13T07:56:37.836Z,19.80
2018-09-13T07:59:07.378Z,15.50
2018-09-13T08:01:36.785Z,15.27
2018-09-13T08:04:06.210Z,17.07
2018-09-13T08:06:35.542Z,19.47
2018-09-13T08:09:08.977Z,10.47
2018-09-13T08:11:38.339Z,22.03
2018-09-13T08:14:07.768Z,21.53
2018-09-13T08:16:37.141Z,13.03
2018-09-13T08:19:06.441Z,19.70
2018-09-13T08:21:35.842Z,20.13
2018-09-13T08:24:05.219Z,17.63
2018-09-13T08:26:34.526Z,16.67
2018-09-13T08:29:03.847Z,13.40
2018-09-13T08:31:33.734Z,14.73
2018-09-13T08:34:03.079Z,16.70
2018-09-13T08:36:32.407Z,22.27
2018-09-13T08:39:01.941Z,21.33
2018-09-13T08:41:31.279Z,19.63
2018-09-13T08:44:00.614Z,17.53
2018-09-13T08:46:30.154Z,18.13
2018-09-13T08:48:59.623Z,13.67
2018-09-13T08:51:29.022Z,21.67
2018-09-13T08:53:58.878Z,27.70
2018-09-13T08:56:28.274Z,25.63
2018-09-13T08:58:57.613Z,20.63
2018-09-13T09:01:27.001Z,15.23
2018-09-13T09:03:56.337Z,11.00
2018-09-13T09:06:25.724Z,19.40
2018-09-13T09:08:55.096Z,14.13
2018-09-13T09:11:24.402Z,15.73
2018-09-13T09:13:53.734Z,17.00
2018-09-13T09:16:23.333Z,18.83
2018-09-13T09:18:52.697Z,17.13
2018-09-13T09:21:22.252Z,12.33
2018-09-13T09:23:51.691Z,13.27
2018-09-13T09:26:21.073Z,10.77
2018-09-13T09:28:50.540Z,15.23
2018-09-13T09:31:19.935Z,14.10
2018-09-13T09:33:49.445Z,11.53
2018-09-13T09:36:18.885Z,8.73
2018-09-13T09:38:48.954Z,13.43
2018-09-13T09:41:18.259Z,11.60
2018-09-13T09:43:47.594Z,18.37
2018-09-13T09:46:16.904Z,14.97
2018-09-13T09:48:46.258Z,13.73
2018-09-13T09:51:15.615Z,8.60
2018-09-13T09:53:45.071Z,18.03
2018-09-13T09:56:14.462Z,11.03
2018-09-13T09:58:43.710Z,12.03
2018-09-13T10:01:18.493Z,16.13
2018-09-13T10:03:47.901Z,9.20
2018-09-13T10:06:17.235Z,15.70
2018-09-13T10:08:46.542Z,17.40
2018-09-13T10:11:15.898Z,9.47
2018-09-13T10:13:45.351Z,10.97
2018-09-13T10:16:20.518Z,14.70
2018-09-13T10:18:53.938Z,20.50
2018-09-13T10:21:28.562Z,12.07
2018-09-13T10:24:02.983Z,10.37
2018-09-13T10:26:37.510Z,15.27
2018-09-13T10:29:12.112Z,11.43
2018-09-13T10:31:47.188Z,11.93
2018-09-13T10:34:21.757Z,17.67
2018-09-13T10:36:56.232Z,13.63
2018-09-13T10:39:30.740Z,16.63
2018-09-13T10:42:05.460Z,11.80
2018-09-13T10:44:39.947Z,11.03
2018-09-13T10:47:15.130Z,14.33
2018-09-13T10:49:50.434Z,16.13
2018-09-13T18:39:53.385Z,26.93
2018-09-13T18:42:24.865Z,16.80
2018-09-13T18:44:54.372Z,11.10
2018-09-13T18:47:23.735Z,12.93
2018-09-13T18:49:53.083Z,20.20
2018-09-13T18:52:23.099Z,18.40
2018-09-13T18:54:52.423Z,24.13
2018-09-13T18:57:21.753Z,11.77
2018-09-13T18:59:52.134Z,21.70
2018-09-13T19:02:21.550Z,21.23
2018-09-13T19:04:50.818Z,26.03
2018-09-13T19:07:20.150Z,23.50
2018-09-13T19:09:49.954Z,23.30
2018-09-13T19:12:20.836Z,28.97
2018-09-13T19:14:50.242Z,16.43
2018-09-13T19:17:21.160Z,15.27
2018-09-13T19:19:50.961Z,14.50
2018-09-13T19:22:20.443Z,13.20
2018-09-13T19:24:50.165Z,23.57
2018-09-13T19:27:20.069Z,16.00
2018-09-13T19:29:49.448Z,16.27
2018-09-13T19:32:19.730Z,22.40
2018-09-13T19:34:49.281Z,22.57
2018-09-13T19:37:19.306Z,13.37
2018-09-13T19:39:49.138Z,19.30
2018-09-13T19:42:20.087Z,17.50
2018-09-13T19:44:50.795Z,13.30
2018-09-13T19:47:20.982Z,16.93
2018-09-13T19:49:51.168Z,12.17
2018-09-13T19:52:21.399Z,12.90
2018-09-13T19:54:51.275Z,15.10
2018-09-13T19:57:21.786Z,13.17
2018-09-13T19:59:51.119Z,37.93
2018-09-13T20:02:21.202Z,14.13
2018-09-13T20:04:50.559Z,15.80
2018-09-13T20:07:20.893Z,10.90
2018-09-13T20:09:50.235Z,15.17
2018-09-13T20:12:19.723Z,15.77
2018-09-13T20:14:48.986Z,16.90
2018-09-13T20:17:18.384Z,13.67
2018-09-13T20:19:47.890Z,15.30
2018-09-13T20:22:17.408Z,10.20
2018-09-13T20:24:47.029Z,16.50
2018-09-13T20:27:16.288Z,13.93
2018-09-13T20:29:45.578Z,25.07
2018-09-13T20:32:14.935Z,24.03
2018-09-13T20:34:44.253Z,15.60
2018-09-13T20:37:13.641Z,19.80
2018-09-13T20:39:43.553Z,21.73
2018-09-13T20:42:12.980Z,25.87
2018-09-13T20:44:43.121Z,13.27
2018-09-13T20:47:12.657Z,11.27
2018-09-13T20:49:42.084Z,18.07
2018-09-13T20:52:11.438Z,14.23
2018-09-13T20:54:40.880Z,13.23
2018-09-13T20:57:10.275Z,14.40
2018-09-13T20:59:39.840Z,13.03
2018-09-13T21:02:09.752Z,16.73
2018-09-13T21:04:39.118Z,10.53
2018-09-13T21:07:08.617Z,17.73
2018-09-13T21:09:38.456Z,13.90
2018-09-13T21:12:07.941Z,12.80
2018-09-13T21:14:37.750Z,11.20
2018-09-13T21:17:07.226Z,11.53
2018-09-13T21:19:36.539Z,13.23
2018-09-13T21:22:05.901Z,18.70
2018-09-13T21:24:35.254Z,13.80
2018-09-13T21:27:04.819Z,17.37
2018-09-13T21:29:34.211Z,13.50
2018-09-13T21:32:03.894Z,10.43
2018-09-13T21:34:33.187Z,14.93
2018-09-13T21:37:02.521Z,14.83
2018-09-13T21:39:32.046Z,15.73
2018-09-13T21:42:01.386Z,11.13
2018-09-13T21:44:30.801Z,14.50
2018-09-13T21:47:00.215Z,12.63
2018-09-13T21:49:29.583Z,16.23
2018-09-13T21:51:58.882Z,9.70
2018-09-13T21:54:28.231Z,15.00
2018-09-13T21:56:57.512Z,11.97
2018-09-13T21:59:26.791Z,11.23
2018-09-13T22:01:56.114Z,8.50
2018-09-13T22:04:25.429Z,16.73
2018-09-13T22:06:54.717Z,12.20
2018-09-13T22:09:24.015Z,9.07
2018-09-13T22:11:53.368Z,17.47
2018-09-13T22:14:22.859Z,12.63
2018-09-13T22:16:52.675Z,10.30
2018-09-13T22:19:22.104Z,10.97
2018-09-13T22:21:51.471Z,15.90
2018-09-13T22:24:20.950Z,23.73
2018-09-13T22:26:50.259Z,12.13
2018-09-13T22:29:19.617Z,12.97
2018-09-13T22:31:49.032Z,14.97
2018-09-13T22:34:18.523Z,19.97
2018-09-13T22:36:47.835Z,15.37
2018-09-13T22:39:17.227Z,11.53
2018-09-13T22:41:46.524Z,8.60
2018-09-13T22:44:16.196Z,13.43
2018-09-13T22:46:45.542Z,11.23
2018-09-13T22:49:14.809Z,13.37
2018-09-13T22:51:44.080Z,16.60
2018-09-13T22:54:20.574Z,14.83
2018-09-13T22:56:49.974Z,15.63
2018-09-13T22:59:19.370Z,16.50
2018-09-13T23:01:49.886Z,13.50
2018-09-13T23:04:19.318Z,11.87
2018-09-13T23:06:48.736Z,9.93
2018-09-13T23:09:18.104Z,23.00
2018-09-13T23:11:47.447Z,15.90
2018-09-13T23:14:16.775Z,23.03
2018-09-13T23:16:49.579Z,12.33
2018-09-13T23:19:15.794Z,13.00
2018-09-13T23:21:45.154Z,6.87
2018-09-13T23:24:14.487Z,10.67
2018-09-13T23:26:43.758Z,7.20
2018-09-13T23:29:13.056Z,19.20
2018-09-13T23:31:42.397Z,11.70
2018-09-13T23:34:11.636Z,9.97
2018-09-13T23:36:40.986Z,21.37
2018-09-13T23:39:11.420Z,18.53
2018-09-13T23:41:41.576Z,10.90
2018-09-13T23:44:10.851Z,7.60
2018-09-13T23:46:40.758Z,18.97
2018-09-13T23:49:10.044Z,12.93
2018-09-13T23:51:39.382Z,7.67
2018-09-13T23:54:08.795Z,8.33
2018-09-13T23:56:38.085Z,11.20
2018-09-13T23:59:07.396Z,9.13
